Time;durP1;ratioP1;P1;durP2;ratioP2;P2;SDS_P1;SDS_P2;PMS_P1;PMS_P2;Temp;Humidity;BMP_temperature;BMP_pressure;BME280_temperature;BME280_humidity;BME280_pressure;Samples;Min_cycle;Max_cycle;Signal;HPM_P1;HPM_P2
2021/05/28 00:01:45;;;;;;;3.57;3.27;;;11.80;99.90;;;;;;5032871;28;20242;-74
2021/05/28 00:04:12;;;;;;;4.30;3.60;;;11.70;99.90;;;;;;5039186;28;20315;-74
2021/05/28 00:06:37;;;;;;;3.17;2.53;;;11.80;99.90;;;;;;5021007;28;20823;-74
2021/05/28 00:09:04;;;;;;;4.37;3.10;;;11.80;99.90;;;;;;5051635;28;20923;-73
2021/05/28 00:11:30;;;;;;;5.03;3.23;;;11.80;99.90;;;;;;5023317;28;20689;-74
2021/05/28 00:13:56;;;;;;;6.20;3.93;;;11.80;99.90;;;;;;5050091;28;20456;-74
2021/05/28 00:16:22;;;;;;;6.53;4.73;;;11.80;99.90;;;;;;5051108;28;20640;-74
2021/05/28 00:18:48;;;;;;;9.10;3.83;;;11.70;99.90;;;;;;5054093;28;20209;-74
2021/05/28 00:21:13;;;;;;;6.40;3.20;;;11.70;99.90;;;;;;5020050;28;20609;-74
2021/05/28 00:23:39;;;;;;;4.47;3.27;;;11.70;99.90;;;;;;5054549;28;20221;-74
2021/05/28 00:26:05;;;;;;;4.30;3.63;;;11.70;99.90;;;;;;5008069;28;20457;-74
2021/05/28 00:28:31;;;;;;;3.30;3.00;;;11.70;99.90;;;;;;5021940;28;20222;-74
2021/05/28 00:30:57;;;;;;;7.43;4.57;;;11.80;99.90;;;;;;5036276;28;20232;-73
2021/05/28 00:33:22;;;;;;;3.30;3.00;;;11.80;99.90;;;;;;5006581;28;20220;-74
2021/05/28 00:35:48;;;;;;;3.50;3.27;;;11.80;99.90;;;;;;5045374;28;20245;-74
2021/05/28 00:38:14;;;;;;;3.67;3.37;;;11.80;99.90;;;;;;5035203;28;20217;-74
2021/05/28 00:40:40;;;;;;;6.30;3.17;;;11.80;99.90;;;;;;5020844;28;20217;-74
2021/05/28 00:43:06;;;;;;;4.30;2.90;;;11.80;99.90;;;;;;5021143;28;20503;-74
2021/05/28 00:45:31;;;;;;;4.63;3.40;;;11.80;99.90;;;;;;5031419;28;20234;-74
2021/05/28 00:47:57;;;;;;;4.47;4.03;;;11.80;99.90;;;;;;5053441;28;20280;-74
2021/05/28 00:50:23;;;;;;;4.30;3.40;;;11.80;99.90;;;;;;5048049;28;20232;-74
2021/05/28 00:52:56;;;;;;;4.63;3.60;;;11.70;99.90;;;;;;5025802;28;20282;-74
2021/05/28 00:55:22;;;;;;;8.10;3.63;;;11.80;99.90;;;;;;5010263;28;20708;-74
2021/05/28 00:57:48;;;;;;;4.30;3.60;;;11.70;99.90;;;;;;5037530;28;21010;-74
2021/05/28 01:00:14;;;;;;;4.30;3.13;;;11.70;99.90;;;;;;5054604;28;20222;-74
2021/05/28 01:02:40;;;;;;;4.87;3.33;;;11.70;99.90;;;;;;5042008;28;20479;-74
2021/05/28 01:05:06;;;;;;;5.77;3.47;;;11.70;99.90;;;;;;5024299;28;20980;-73
2021/05/28 01:07:32;;;;;;;5.07;3.63;;;11.70;99.90;;;;;;5027026;28;20295;-74
2021/05/28 01:09:57;;;;;;;7.40;4.57;;;11.60;99.90;;;;;;5031982;28;20218;-74
2021/05/28 01:12:23;;;;;;;4.70;3.87;;;11.50;99.90;;;;;;5022529;28;20236;-74
2021/05/28 01:14:50;;;;;;;5.93;4.17;;;11.40;99.90;;;;;;5025018;28;20728;-74
2021/05/28 01:17:16;;;;;;;8.30;5.10;;;11.40;99.90;;;;;;5024527;28;20300;-74
2021/05/28 01:19:42;;;;;;;5.40;4.00;;;11.40;99.90;;;;;;5038951;28;20468;-74
2021/05/28 01:22:08;;;;;;;8.47;4.77;;;11.30;99.90;;;;;;5010572;28;20451;-74
2021/05/28 01:24:34;;;;;;;4.80;4.30;;;11.30;99.90;;;;;;5049686;28;20313;-74
2021/05/28 01:27:01;;;;;;;7.27;4.70;;;11.20;99.90;;;;;;5049652;28;20476;-74
2021/05/28 01:29:27;;;;;;;5.40;4.57;;;11.30;99.90;;;;;;5031574;28;20838;-74
2021/05/28 01:31:53;;;;;;;5.60;4.30;;;11.20;99.90;;;;;;5040286;28;20496;-74
2021/05/28 01:34:18;;;;;;;7.70;5.10;;;11.30;99.90;;;;;;5026040;28;20518;-74
2021/05/28 01:36:44;;;;;;;7.37;5.43;;;11.20;99.90;;;;;;5054751;28;20247;-74
2021/05/28 01:39:10;;;;;;;5.30;4.33;;;11.10;99.90;;;;;;5009537;28;20230;-74
2021/05/28 01:41:36;;;;;;;4.77;4.27;;;11.10;99.90;;;;;;5012247;28;20225;-74
2021/05/28 01:44:07;;;;;;;6.27;5.20;;;11.10;99.90;;;;;;5004073;28;20737;-74
2021/05/28 01:46:33;;;;;;;7.90;4.67;;;11.10;99.90;;;;;;5077583;28;20546;-74
2021/05/28 01:48:59;;;;;;;7.50;5.00;;;11.20;99.90;;;;;;5071935;28;21048;-74
2021/05/28 01:51:25;;;;;;;5.93;4.90;;;11.20;99.90;;;;;;5037090;28;20229;-74
2021/05/28 01:53:50;;;;;;;8.97;4.83;;;11.20;99.90;;;;;;5053303;28;20537;-74
2021/05/28 01:56:16;;;;;;;4.20;3.73;;;11.20;99.90;;;;;;5043253;28;20243;-74
2021/05/28 01:58:42;;;;;;;7.23;5.27;;;11.20;99.90;;;;;;5041023;28;20299;-74
2021/05/28 02:01:07;;;;;;;7.47;4.60;;;11.20;99.90;;;;;;5057059;28;20208;-74
2021/05/28 02:03:33;;;;;;;5.27;4.67;;;11.20;99.90;;;;;;5039519;28;20287;-74
2021/05/28 02:05:59;;;;;;;8.73;4.87;;;11.20;99.90;;;;;;5045699;28;20209;-74
2021/05/28 02:08:25;;;;;;;5.67;5.03;;;11.20;99.90;;;;;;5056054;28;20220;-74
2021/05/28 02:10:51;;;;;;;9.23;5.47;;;11.10;99.90;;;;;;5044841;28;20231;-74
2021/05/28 02:13:17;;;;;;;7.53;5.30;;;11.00;99.90;;;;;;5059507;28;20447;-74
2021/05/28 02:15:43;;;;;;;6.47;4.73;;;10.90;99.90;;;;;;5074651;28;20677;-74
2021/05/28 02:18:09;;;;;;;7.57;5.10;;;10.90;99.90;;;;;;5079525;28;20215;-74
2021/05/28 02:20:35;;;;;;;8.00;4.93;;;10.90;99.90;;;;;;5047182;28;20268;-74
2021/05/28 02:23:00;;;;;;;6.87;5.20;;;10.90;99.90;;;;;;5045854;28;20564;-74
2021/05/28 02:25:26;;;;;;;9.23;5.53;;;10.90;99.90;;;;;;5039472;28;20227;-74
2021/05/28 02:27:52;;;;;;;6.33;5.30;;;10.70;99.90;;;;;;5077279;28;20239;-74
2021/05/28 02:30:18;;;;;;;8.83;5.67;;;10.80;99.90;;;;;;5027718;28;20239;-74
2021/05/28 02:32:44;;;;;;;6.87;5.43;;;10.70;99.90;;;;;;5055879;28;20892;-74
2021/05/28 02:35:11;;;;;;;7.37;5.40;;;10.60;99.90;;;;;;5051375;28;20463;-74
2021/05/28 02:37:37;;;;;;;6.30;5.00;;;10.70;99.90;;;;;;5046904;28;20220;-74
2021/05/28 02:40:07;;;;;;;5.60;4.90;;;10.70;99.90;;;;;;5055181;28;20554;-74
2021/05/28 02:42:33;;;;;;;6.23;5.20;;;10.70;99.90;;;;;;5040499;28;20475;-74
2021/05/28 02:44:59;;;;;;;7.90;5.00;;;10.70;99.90;;;;;;5055226;28;21029;-74
2021/05/28 02:47:25;;;;;;;4.87;4.37;;;10.80;99.90;;;;;;5055527;28;20460;-74
2021/05/28 02:49:51;;;;;;;7.30;6.23;;;10.80;99.90;;;;;;5044815;28;20224;-74
2021/05/28 02:52:17;;;;;;;7.13;4.53;;;10.80;99.90;;;;;;5059459;28;21010;-74
2021/05/28 02:54:43;;;;;;;6.83;5.20;;;10.70;99.90;;;;;;5057840;28;20455;-74
2021/05/28 02:57:10;;;;;;;4.97;4.40;;;10.80;99.90;;;;;;5045659;28;20231;-73
2021/05/28 02:59:35;;;;;;;11.00;4.67;;;10.70;99.90;;;;;;5053744;28;20464;-74
2021/05/28 03:02:02;;;;;;;6.27;4.83;;;10.70;99.90;;;;;;5061793;28;20455;-74
2021/05/28 03:04:28;;;;;;;8.70;4.90;;;10.80;99.90;;;;;;5039232;28;20749;-74
2021/05/28 03:06:54;;;;;;;8.40;6.57;;;10.80;99.90;;;;;;5043258;28;20547;-74
2021/05/28 03:09:19;;;;;;;8.10;6.40;;;10.70;99.90;;;;;;5051177;28;20219;-74
2021/05/28 03:11:45;;;;;;;6.83;5.40;;;10.70;99.90;;;;;;5071275;28;20681;-74
2021/05/28 03:14:11;;;;;;;6.50;4.80;;;10.60;99.90;;;;;;5037869;28;20224;-74
2021/05/28 03:16:36;;;;;;;8.63;5.67;;;10.50;99.90;;;;;;5039115;28;20224;-74
2021/05/28 03:19:06;;;;;;;6.57;4.70;;;10.60;99.90;;;;;;5070704;28;20586;-74
2021/05/28 03:24:03;;;;;;;7.07;4.97;;;10.60;99.90;;;;;;5032359;28;20462;-74
2021/05/28 03:26:30;;;;;;;8.20;5.43;;;10.70;99.90;;;;;;5021592;28;20221;-74
2021/05/28 03:28:57;;;;;;;11.70;6.23;;;10.70;99.90;;;;;;5054182;28;20468;-74
2021/05/28 03:31:23;;;;;;;7.03;5.70;;;10.70;99.90;;;;;;5033093;28;20620;-74
2021/05/28 03:33:49;;;;;;;7.23;5.03;;;10.60;99.90;;;;;;5031427;28;20456;-74
2021/05/28 03:36:16;;;;;;;8.23;5.87;;;10.70;99.90;;;;;;5039070;28;20457;-74
2021/05/28 03:38:47;;;;;;;7.50;5.50;;;10.60;99.90;;;;;;5015366;28;20985;-74
2021/05/28 03:41:15;;;;;;;6.47;5.03;;;10.60;99.90;;;;;;5052405;28;20455;-74
2021/05/28 03:43:41;;;;;;;6.53;5.30;;;10.50;99.90;;;;;;4991799;28;20453;-74
2021/05/28 03:46:07;;;;;;;8.50;5.90;;;10.40;99.90;;;;;;5007003;28;20979;-73
2021/05/28 03:48:32;;;;;;;7.00;5.00;;;10.40;99.90;;;;;;5015920;28;20457;-74
2021/05/28 03:50:58;;;;;;;5.80;4.63;;;10.50;99.90;;;;;;5035216;28;20306;-74
2021/05/28 03:53:24;;;;;;;7.20;5.10;;;10.50;99.90;;;;;;5026377;28;20711;-74
2021/05/28 03:55:49;;;;;;;6.10;4.87;;;10.50;99.90;;;;;;5028233;28;20623;-74
2021/05/28 03:58:15;;;;;;;5.60;4.00;;;10.60;99.90;;;;;;5023743;28;20240;-74
2021/05/28 04:00:41;;;;;;;6.23;4.50;;;10.60;99.90;;;;;;5048500;28;20676;-74
2021/05/28 04:03:07;;;;;;;5.27;4.80;;;10.50;99.90;;;;;;5032961;28;20213;-73
2021/05/28 04:05:33;;;;;;;6.60;4.77;;;10.60;99.90;;;;;;5022484;28;20279;-73
2021/05/28 04:08:00;;;;;;;6.80;4.40;;;10.60;99.90;;;;;;5019894;28;20499;-74
2021/05/28 04:10:26;;;;;;;5.50;4.40;;;10.60;99.90;;;;;;5007989;28;20453;-74
2021/05/28 04:12:55;;;;;;;6.43;4.20;;;10.60;99.90;;;;;;5000360;28;20462;-74
2021/05/28 04:15:21;;;;;;;6.43;5.30;;;10.60;99.90;;;;;;5019902;28;20308;-74
2021/05/28 04:17:46;;;;;;;5.57;4.97;;;10.60;99.90;;;;;;5038136;28;20535;-73
2021/05/28 04:20:13;;;;;;;8.63;5.10;;;10.60;99.90;;;;;;5037226;28;20562;-74
2021/05/28 04:22:39;;;;;;;9.67;5.30;;;10.60;99.90;;;;;;5006752;28;20304;-73
2021/05/28 04:25:06;;;;;;;8.30;5.00;;;10.50;99.90;;;;;;5002129;28;20461;-74
2021/05/28 04:27:31;;;;;;;9.77;5.70;;;10.60;99.90;;;;;;4995963;28;20535;-74
2021/05/28 04:29:57;;;;;;;8.40;4.93;;;10.60;99.90;;;;;;5020212;28;20553;-74
2021/05/28 04:32:23;;;;;;;9.80;4.90;;;10.50;99.90;;;;;;4989485;28;20263;-74
2021/05/28 04:34:48;;;;;;;8.87;5.90;;;10.50;99.90;;;;;;5034886;28;20271;-74
2021/05/28 04:37:14;;;;;;;9.13;5.77;;;10.60;99.90;;;;;;5003576;28;20228;-74
2021/05/28 04:39:39;;;;;;;12.00;5.87;;;10.60;99.90;;;;;;5030399;28;20222;-74
2021/05/28 04:42:05;;;;;;;11.90;6.67;;;10.60;99.90;;;;;;4991459;28;20253;-74
2021/05/28 04:44:31;;;;;;;9.37;5.20;;;10.60;99.90;;;;;;5012624;28;20305;-75
2021/05/28 04:46:57;;;;;;;9.30;6.23;;;10.70;99.90;;;;;;5020247;28;20460;-74
2021/05/28 04:49:24;;;;;;;7.83;5.73;;;10.70;99.90;;;;;;5030850;28;20221;-74
2021/05/28 04:51:50;;;;;;;9.13;6.30;;;10.60;99.90;;;;;;5003737;28;20248;-74
2021/05/28 04:54:16;;;;;;;12.20;6.00;;;10.70;99.90;;;;;;4998870;28;20467;-74
2021/05/28 04:56:42;;;;;;;8.07;5.93;;;10.70;99.90;;;;;;5030903;28;20457;-74
2021/05/28 04:59:07;;;;;;;7.57;5.30;;;10.70;99.90;;;;;;5020285;28;20509;-74
2021/05/28 05:01:33;;;;;;;7.40;5.13;;;10.70;99.90;;;;;;5001202;28;20700;-74
2021/05/28 05:03:59;;;;;;;7.30;6.00;;;10.70;99.90;;;;;;5013136;28;20246;-74
2021/05/28 05:06:25;;;;;;;7.10;4.87;;;10.70;99.90;;;;;;5041412;28;20221;-74
2021/05/28 05:08:50;;;;;;;6.20;5.17;;;10.70;99.90;;;;;;5047530;28;20297;-74
2021/05/28 05:11:17;;;;;;;7.60;5.17;;;10.70;99.90;;;;;;5042305;28;20231;-75
2021/05/28 05:13:43;;;;;;;12.73;6.57;;;10.70;99.90;;;;;;5047745;28;20243;-74
2021/05/28 05:16:08;;;;;;;14.67;6.47;;;10.70;99.90;;;;;;5032291;28;21003;-74
2021/05/28 05:18:34;;;;;;;8.83;6.47;;;10.70;99.90;;;;;;5048779;28;20227;-76
2021/05/28 05:21:00;;;;;;;8.97;6.10;;;10.80;99.90;;;;;;4999931;28;20224;-76
2021/05/28 05:23:25;;;;;;;8.77;5.93;;;10.80;99.90;;;;;;5014395;28;20235;-75
2021/05/28 05:25:51;;;;;;;11.67;6.43;;;10.80;99.90;;;;;;5047495;28;20232;-75
2021/05/28 05:28:17;;;;;;;9.47;6.70;;;10.80;99.90;;;;;;5051142;28;20243;-75
2021/05/28 05:30:43;;;;;;;9.70;5.83;;;10.80;99.90;;;;;;5048414;28;20308;-75
2021/05/28 05:33:10;;;;;;;10.40;6.60;;;10.90;99.90;;;;;;5062179;28;20239;-75
2021/05/28 05:35:36;;;;;;;16.83;9.07;;;10.90;99.90;;;;;;5030402;28;20221;-75
2021/05/28 05:38:08;;;;;;;9.87;7.80;;;11.00;99.90;;;;;;5031395;28;20467;-75
2021/05/28 05:40:37;;;;;;;10.27;6.40;;;11.00;99.90;;;;;;5009500;28;20526;-75
2021/05/28 05:43:03;;;;;;;9.60;5.90;;;11.00;99.90;;;;;;5065850;28;20447;-76
2021/05/28 05:45:29;;;;;;;11.93;7.07;;;11.10;99.90;;;;;;5030484;28;20451;-75
2021/05/28 05:47:55;;;;;;;10.07;5.80;;;11.10;99.90;;;;;;5031940;28;20455;-75
2021/05/28 05:50:21;;;;;;;12.67;6.97;;;11.10;99.90;;;;;;5014685;28;20461;-75
2021/05/28 05:52:46;;;;;;;10.83;7.57;;;11.10;99.90;;;;;;5033011;28;20729;-75
2021/05/28 05:55:12;;;;;;;12.30;7.87;;;11.10;99.90;;;;;;5063474;28;20220;-75
2021/05/28 05:57:38;;;;;;;10.17;6.57;;;11.20;99.90;;;;;;5048260;28;20213;-76
2021/05/28 06:00:06;;;;;;;9.37;6.30;;;11.20;99.90;;;;;;5047388;28;20465;-75
2021/05/28 06:02:34;;;;;;;10.47;7.10;;;11.20;99.90;;;;;;5013751;28;20213;-76
2021/05/28 06:04:59;;;;;;;10.53;6.33;;;11.30;99.90;;;;;;5053276;28;20549;-75
2021/05/28 06:07:25;;;;;;;10.90;7.13;;;11.30;99.90;;;;;;5011485;28;20616;-75
2021/05/28 06:09:51;;;;;;;10.67;6.70;;;11.30;99.90;;;;;;5028138;28;20634;-75
2021/05/28 06:12:17;;;;;;;11.13;6.50;;;11.40;99.90;;;;;;5044016;28;20233;-75
2021/05/28 06:14:42;;;;;;;11.30;7.27;;;11.40;99.90;;;;;;5042544;28;20229;-75
2021/05/28 06:17:08;;;;;;;8.20;6.27;;;11.40;99.90;;;;;;5063778;28;20220;-75
2021/05/28 06:19:34;;;;;;;8.40;6.77;;;11.40;99.90;;;;;;5048595;28;20220;-75
2021/05/28 06:21:59;;;;;;;8.50;5.50;;;11.50;99.90;;;;;;5031456;28;20598;-75
2021/05/28 06:24:25;;;;;;;12.97;7.10;;;11.50;99.90;;;;;;5044627;28;20232;-75
2021/05/28 06:26:51;;;;;;;11.80;6.13;;;11.50;99.90;;;;;;5016987;28;20217;-76
2021/05/28 06:29:45;;;;;;;8.23;5.60;;;11.60;99.90;;;;;;5030024;28;20303;-76
2021/05/28 06:32:11;;;;;;;9.50;6.10;;;11.60;99.90;;;;;;5030479;28;20259;-76
2021/05/28 06:34:37;;;;;;;8.43;6.00;;;11.70;99.90;;;;;;5030910;28;20497;-76
2021/05/28 06:37:04;;;;;;;9.10;5.83;;;11.80;99.90;;;;;;5031153;28;20723;-75
2021/05/28 06:39:30;;;;;;;7.27;5.80;;;11.80;99.90;;;;;;5037990;28;20538;-75
2021/05/28 06:41:56;;;;;;;10.87;7.17;;;11.90;99.90;;;;;;5049930;28;20458;-76
2021/05/28 06:44:24;;;;;;;7.27;6.27;;;12.00;99.90;;;;;;5072566;28;20451;-75
2021/05/28 06:46:54;;;;;;;9.00;5.97;;;12.00;99.90;;;;;;5065602;28;20219;-76
2021/05/28 06:49:20;;;;;;;8.57;6.27;;;12.10;99.90;;;;;;5080396;28;20463;-75
2021/05/28 06:51:47;;;;;;;6.37;5.40;;;12.10;99.90;;;;;;5047317;28;20466;-76
2021/05/28 06:54:14;;;;;;;8.57;5.47;;;12.20;99.90;;;;;;5029660;28;21057;-75
2021/05/28 06:56:40;;;;;;;8.57;6.10;;;12.30;99.90;;;;;;5062897;28;21028;-75
2021/05/28 06:59:07;;;;;;;10.63;4.97;;;12.40;99.90;;;;;;5030040;28;20467;-75
2021/05/28 07:01:33;;;;;;;7.20;5.27;;;12.40;99.90;;;;;;5030869;28;20951;-76
2021/05/28 07:04:03;;;;;;;7.07;5.30;;;12.60;99.90;;;;;;5026858;28;20480;-75
2021/05/28 07:06:30;;;;;;;5.00;4.30;;;12.60;99.90;;;;;;5027929;28;20530;-75
2021/05/28 07:08:57;;;;;;;6.70;5.57;;;12.60;99.90;;;;;;5038208;28;20537;-75
2021/05/28 07:11:24;;;;;;;8.60;5.60;;;12.70;99.90;;;;;;5068767;28;20477;-75
2021/05/28 07:13:50;;;;;;;5.80;4.00;;;12.70;99.90;;;;;;5055173;28;20455;-75
2021/05/28 07:16:16;;;;;;;6.27;4.67;;;12.70;99.90;;;;;;5043191;28;20514;-75
2021/05/28 07:18:42;;;;;;;7.17;5.50;;;12.70;99.90;;;;;;5065270;28;20212;-75
2021/05/28 07:21:08;;;;;;;8.73;4.93;;;12.80;99.90;;;;;;5061968;28;20220;-75
2021/05/28 07:23:33;;;;;;;8.03;5.53;;;12.80;99.90;;;;;;5008406;28;20459;-76
2021/05/28 07:26:01;;;;;;;6.83;5.60;;;12.90;99.90;;;;;;5062244;28;20228;-75
2021/05/28 07:29:04;;;;;;;6.77;4.93;;;13.00;99.90;;;;;;5060659;28;20311;-75
2021/05/28 07:31:30;;;;;;;7.90;3.57;;;13.00;99.90;;;;;;5042717;28;20459;-75
2021/05/28 07:33:56;;;;;;;7.93;4.20;;;13.10;99.90;;;;;;5036514;28;20466;-76
2021/05/28 07:36:23;;;;;;;4.67;4.27;;;13.20;99.90;;;;;;5029466;28;20462;-75
2021/05/28 07:38:49;;;;;;;4.40;4.00;;;13.30;99.90;;;;;;5046855;28;20300;-74
2021/05/28 07:41:15;;;;;;;6.70;3.97;;;13.30;99.90;;;;;;5057378;28;20891;-75
2021/05/28 07:43:41;;;;;;;5.50;4.40;;;13.30;99.90;;;;;;5072358;28;20534;-75
2021/05/28 07:46:07;;;;;;;4.30;3.90;;;13.40;99.90;;;;;;5057411;28;20216;-75
2021/05/28 07:48:33;;;;;;;7.40;4.27;;;13.50;99.90;;;;;;5048738;28;20216;-75
2021/05/28 07:50:59;;;;;;;5.50;4.20;;;13.50;99.90;;;;;;5078539;28;20225;-75
2021/05/28 07:53:58;;;;;;;4.70;3.40;;;13.60;99.90;;;;;;5086484;28;20217;-75
2021/05/28 07:56:24;;;;;;;5.03;3.90;;;13.70;99.90;;;;;;5012792;28;20303;-75
2021/05/28 07:58:49;;;;;;;4.00;3.60;;;13.80;99.90;;;;;;5063170;28;20522;-73
2021/05/28 08:01:15;;;;;;;5.03;3.50;;;13.90;99.90;;;;;;5044040;28;20223;-73
2021/05/28 08:03:41;;;;;;;6.40;3.83;;;14.10;99.90;;;;;;5057349;28;20228;-73
2021/05/28 08:06:06;;;;;;;3.40;3.10;;;14.20;99.90;;;;;;5065961;28;20382;-73
2021/05/28 08:08:32;;;;;;;4.13;3.73;;;14.30;99.90;;;;;;5065527;28;20579;-73
2021/05/28 08:10:58;;;;;;;3.80;3.00;;;14.30;99.90;;;;;;5065784;28;20216;-73
2021/05/28 08:13:23;;;;;;;3.03;2.70;;;14.30;99.90;;;;;;5096402;28;20339;-73
2021/05/28 08:15:49;;;;;;;2.70;2.47;;;14.30;99.90;;;;;;5037240;28;20212;-73
2021/05/28 08:18:15;;;;;;;3.10;2.80;;;14.40;99.90;;;;;;5050861;28;20216;-73
2021/05/28 08:20:42;;;;;;;2.70;2.50;;;14.50;99.90;;;;;;5067566;28;20455;-73
2021/05/28 08:23:08;;;;;;;3.17;2.80;;;14.60;99.90;;;;;;5072269;28;20216;-74
2021/05/28 08:25:34;;;;;;;5.90;4.27;;;14.70;99.90;;;;;;5029183;28;20450;-73
2021/05/28 08:27:59;;;;;;;5.90;3.80;;;14.70;99.90;;;;;;5045722;28;20220;-73
2021/05/28 08:30:25;;;;;;;1.83;1.73;;;14.80;99.90;;;;;;5012334;28;20227;-73
2021/05/28 08:32:51;;;;;;;4.23;2.80;;;14.90;99.90;;;;;;5028446;28;20255;-73
2021/05/28 08:35:16;;;;;;;3.00;2.70;;;14.90;99.90;;;;;;5045186;28;20585;-73
2021/05/28 08:37:42;;;;;;;4.33;2.97;;;14.90;99.90;;;;;;5012727;28;20216;-73
2021/05/28 08:40:09;;;;;;;8.40;3.27;;;14.90;99.90;;;;;;5038781;28;20679;-74
2021/05/28 08:42:35;;;;;;;4.07;2.83;;;14.80;99.90;;;;;;5046401;28;20226;-73
2021/05/28 08:45:01;;;;;;;3.80;2.73;;;15.00;99.90;;;;;;5050914;28;20480;-73
2021/05/28 08:47:27;;;;;;;4.07;3.10;;;15.10;99.90;;;;;;5053727;28;21001;-73
2021/05/28 08:49:55;;;;;;;3.60;3.00;;;15.20;99.90;;;;;;5049150;28;20606;-73
2021/05/28 08:52:22;;;;;;;3.60;3.10;;;15.30;99.90;;;;;;5047583;28;20471;-73
2021/05/28 08:54:49;;;;;;;3.50;3.00;;;15.40;99.90;;;;;;5013600;28;20466;-73
2021/05/28 08:57:16;;;;;;;2.70;2.50;;;15.50;99.90;;;;;;5029441;28;20459;-73
2021/05/28 08:59:42;;;;;;;4.50;3.80;;;15.70;99.90;;;;;;5029686;28;20458;-73
2021/05/28 09:02:30;;;;;;;7.20;3.70;;;15.70;99.90;;;;;;5045449;28;20470;-73
2021/05/28 09:05:04;;;;;;;2.70;2.50;;;15.70;99.90;;;;;;5046385;28;20243;-73
2021/05/28 09:07:30;;;;;;;5.37;3.50;;;15.80;99.90;;;;;;5045250;28;20458;-73
2021/05/28 09:09:56;;;;;;;4.87;3.30;;;15.90;99.90;;;;;;5082667;28;20459;-73
2021/05/28 09:12:28;;;;;;;4.47;3.37;;;15.90;99.90;;;;;;5078490;28;20232;-73
2021/05/28 09:14:54;;;;;;;3.37;2.80;;;16.00;99.90;;;;;;5029293;28;20470;-73
2021/05/28 09:17:20;;;;;;;5.07;3.40;;;16.00;99.90;;;;;;5030581;28;20971;-74
2021/05/28 09:19:57;;;;;;;3.87;2.67;;;16.10;99.90;;;;;;5062600;28;20459;-74
2021/05/28 09:22:32;;;;;;;3.90;2.90;;;16.10;99.90;;;;;;5079492;28;20459;-73
2021/05/28 09:24:58;;;;;;;2.80;2.60;;;16.20;99.90;;;;;;5065673;28;20466;-74
2021/05/28 09:27:29;;;;;;;3.00;2.43;;;16.20;99.90;;;;;;5065290;28;20465;-73
2021/05/28 09:30:20;;;;;;;3.77;3.17;;;16.30;99.90;;;;;;5069422;28;20295;-73
2021/05/28 09:32:49;;;;;;;2.60;2.40;;;16.50;99.90;;;;;;5076792;28;20981;-74
2021/05/28 09:35:20;;;;;;;2.70;2.43;;;16.50;99.90;;;;;;5084785;28;20476;-73
2021/05/28 09:37:52;;;;;;;2.50;2.30;;;16.50;99.90;;;;;;5056292;28;20467;-73
2021/05/28 09:40:28;;;;;;;2.83;2.63;;;16.70;99.90;;;;;;5075974;28;20446;-73
2021/05/28 09:43:05;;;;;;;4.53;2.60;;;16.70;99.90;;;;;;5068427;28;20465;-74
2021/05/28 09:45:34;;;;;;;3.27;2.67;;;16.70;99.90;;;;;;5059084;28;20455;-73
2021/05/28 09:48:03;;;;;;;2.67;2.47;;;16.70;99.90;;;;;;5064382;28;20482;-73
2021/05/28 09:50:34;;;;;;;2.67;2.40;;;16.80;99.90;;;;;;5060411;28;20460;-74
2021/05/28 09:53:04;;;;;;;3.87;2.60;;;16.80;99.90;;;;;;5065677;28;20478;-74
2021/05/28 09:55:31;;;;;;;1.67;1.57;;;16.80;99.90;;;;;;5050769;28;20462;-74
2021/05/28 09:57:57;;;;;;;2.03;1.83;;;16.80;99.90;;;;;;5070620;28;20492;-74
2021/05/28 10:00:26;;;;;;;2.33;2.07;;;16.80;99.90;;;;;;5031459;28;20479;-74
2021/05/28 10:03:12;;;;;;;3.27;2.07;;;16.90;99.90;;;;;;5064600;28;20808;-74
2021/05/28 10:05:39;;;;;;;1.83;1.73;;;17.00;99.90;;;;;;5047015;28;20467;-74
2021/05/28 10:08:11;;;;;;;2.30;2.10;;;17.10;99.90;;;;;;5014297;28;20471;-74
2021/05/28 10:10:38;;;;;;;1.77;1.63;;;17.30;99.90;;;;;;5063603;28;20455;-74
2021/05/28 10:13:11;;;;;;;2.23;2.03;;;17.40;99.90;;;;;;5027146;28;20490;-74
2021/05/28 10:15:48;;;;;;;2.83;2.00;;;17.50;99.90;;;;;;5062725;28;20941;-74
2021/05/28 10:18:16;;;;;;;3.17;2.93;;;17.40;99.90;;;;;;5017733;28;20562;-74
2021/05/28 10:20:44;;;;;;;3.33;2.00;;;17.40;99.90;;;;;;5041732;28;20498;-74
2021/05/28 10:23:12;;;;;;;2.30;2.20;;;17.40;99.90;;;;;;5059159;28;20567;-74
2021/05/28 10:25:39;;;;;;;2.37;2.17;;;17.50;99.90;;;;;;5055458;28;20877;-74
2021/05/28 10:28:21;;;;;;;1.80;1.70;;;17.50;99.90;;;;;;5036744;28;20463;-74
2021/05/28 10:30:49;;;;;;;1.70;1.60;;;17.50;99.90;;;;;;5051170;28;20467;-74
2021/05/28 10:33:30;;;;;;;2.50;1.77;;;17.50;99.90;;;;;;5027205;28;20480;-75
2021/05/28 10:36:01;;;;;;;2.10;1.90;;;17.50;99.90;;;;;;5030998;28;20479;-74
2021/05/28 10:38:33;;;;;;;3.03;2.33;;;17.60;99.90;;;;;;5011246;28;20539;-74
2021/05/28 10:41:04;;;;;;;2.00;1.90;;;17.50;99.90;;;;;;5043819;28;20483;-75
2021/05/28 10:43:35;;;;;;;1.83;1.70;;;17.60;99.90;;;;;;5041474;28;20583;-75
2021/05/28 10:46:05;;;;;;;1.60;1.50;;;17.50;99.90;;;;;;5010621;28;20510;-74
2021/05/28 10:48:36;;;;;;;1.87;1.60;;;17.50;99.90;;;;;;5042610;28;20518;-74
2021/05/28 10:51:12;;;;;;;2.73;1.90;;;17.30;99.90;;;;;;5043680;28;20464;-75
2021/05/28 10:53:38;;;;;;;2.10;1.90;;;17.40;99.90;;;;;;5025841;28;20617;-74
2021/05/28 10:56:11;;;;;;;2.63;1.90;;;17.60;99.90;;;;;;5043883;28;20510;-74
2021/05/28 10:58:57;;;;;;;4.10;1.73;;;17.60;99.90;;;;;;5010714;28;20448;-74
2021/05/28 11:01:35;;;;;;;1.70;1.60;;;17.80;99.90;;;;;;5057694;28;20547;-74
2021/05/28 11:04:09;;;;;;;1.60;1.50;;;17.80;99.90;;;;;;5042434;28;20891;-74
2021/05/28 11:06:57;;;;;;;1.70;1.57;;;17.80;99.90;;;;;;5024541;28;20459;-74
2021/05/28 11:09:42;;;;;;;1.97;1.80;;;17.80;99.90;;;;;;5030393;28;21014;-74
2021/05/28 11:12:13;;;;;;;1.80;1.70;;;17.80;99.90;;;;;;5002117;28;20502;-74
2021/05/28 11:15:00;;;;;;;2.27;1.77;;;17.80;99.90;;;;;;5028468;28;20449;-74
2021/05/28 11:17:26;;;;;;;2.10;1.47;;;17.80;99.90;;;;;;5018204;28;21138;-74
2021/05/28 11:19:56;;;;;;;1.40;1.30;;;17.90;99.90;;;;;;5007454;28;20562;-74
2021/05/28 11:22:29;;;;;;;1.53;1.43;;;17.90;99.90;;;;;;5033295;28;20213;-74
2021/05/28 11:25:04;;;;;;;1.93;1.83;;;18.00;99.90;;;;;;5043901;28;21007;-74
2021/05/28 11:27:32;;;;;;;2.10;1.90;;;17.90;99.90;;;;;;5011205;28;20451;-74
2021/05/28 11:30:04;;;;;;;3.33;1.70;;;17.90;99.90;;;;;;5026037;28;20459;-75
2021/05/28 11:32:47;;;;;;;2.50;1.73;;;17.90;99.90;;;;;;5025772;28;20464;-74
2021/05/28 11:35:35;;;;;;;1.87;1.77;;;18.00;99.90;;;;;;5009994;28;20497;-74
2021/05/28 11:38:04;;;;;;;2.07;1.87;;;18.20;99.90;;;;;;5043262;28;20448;-75
2021/05/28 11:40:36;;;;;;;1.57;1.47;;;18.40;99.90;;;;;;4993443;28;20459;-74
2021/05/28 11:43:06;;;;;;;2.23;1.80;;;18.40;99.90;;;;;;5042344;28;20453;-74
2021/05/28 11:45:34;;;;;;;1.60;1.50;;;18.40;99.90;;;;;;5041710;28;20452;-74
2021/05/28 11:48:00;;;;;;;1.70;1.60;;;18.40;99.90;;;;;;5042141;28;20460;-74
2021/05/28 11:50:39;;;;;;;2.70;1.70;;;18.50;99.90;;;;;;5035681;28;20998;-74
2021/05/28 11:53:05;;;;;;;2.43;2.23;;;18.60;99.90;;;;;;5030020;28;20228;-74
2021/05/28 11:55:41;;;;;;;2.17;1.80;;;18.70;99.90;;;;;;5061279;28;20555;-74
2021/05/28 11:58:07;;;;;;;2.20;2.00;;;18.80;99.90;;;;;;5062694;28;20491;-74
2021/05/28 12:00:33;;;;;;;1.70;1.60;;;18.80;99.90;;;;;;5061964;28;20471;-74
2021/05/28 12:03:00;;;;;;;1.60;1.50;;;18.90;99.90;;;;;;5012898;28;20712;-74
2021/05/28 12:05:48;;;;;;;2.57;2.37;;;19.10;99.90;;;;;;5012235;28;20465;-75
2021/05/28 12:08:17;;;;;;;1.50;1.43;;;19.00;99.90;;;;;;5044504;28;20505;-74
2021/05/28 12:10:50;;;;;;;1.33;1.23;;;18.90;99.70;;;;;;5027679;28;20443;-74
2021/05/28 12:13:17;;;;;;;1.40;1.30;;;18.80;99.70;;;;;;5053356;28;20468;-74
2021/05/28 12:15:50;;;;;;;2.73;1.47;;;18.80;99.90;;;;;;5033467;28;21001;-74
2021/05/28 12:18:31;;;;;;;2.90;1.70;;;18.90;99.40;;;;;;5027936;28;20463;-75
2021/05/28 12:21:02;;;;;;;1.83;1.70;;;19.20;99.50;;;;;;5068506;28;20462;-74
2021/05/28 12:23:32;;;;;;;1.60;1.50;;;19.20;99.90;;;;;;5060350;28;20533;-74
2021/05/28 12:25:59;;;;;;;1.50;1.40;;;19.10;99.60;;;;;;5082457;28;20977;-74
2021/05/28 12:28:29;;;;;;;1.70;1.60;;;19.20;99.80;;;;;;5064991;28;20462;-74
2021/05/28 12:30:58;;;;;;;2.03;1.60;;;19.20;99.80;;;;;;5064448;28;20493;-75
2021/05/28 12:33:28;;;;;;;3.30;1.53;;;19.20;99.60;;;;;;5059283;28;20454;-74
2021/05/28 12:35:57;;;;;;;2.00;1.80;;;19.30;99.50;;;;;;5062422;28;20486;-75
2021/05/28 12:38:25;;;;;;;1.77;1.63;;;19.40;99.90;;;;;;5065076;28;20489;-74
2021/05/28 12:40:51;;;;;;;1.50;1.40;;;19.50;99.60;;;;;;5065458;28;20466;-74
2021/05/28 12:43:23;;;;;;;3.90;1.77;;;19.40;99.00;;;;;;5063375;28;20480;-75
2021/05/28 12:45:49;;;;;;;1.50;1.40;;;19.30;98.20;;;;;;5060802;28;21039;-74
2021/05/28 12:48:15;;;;;;;2.03;1.27;;;19.20;98.80;;;;;;5028696;28;20504;-75
2021/05/28 12:50:43;;;;;;;1.73;1.63;;;19.30;98.90;;;;;;5054249;28;20874;-74
2021/05/28 12:53:18;;;;;;;2.00;1.90;;;19.30;98.40;;;;;;5011742;28;20260;-74